CYSP

Marathon Airport

Marathon, Ontario, Canada
METAR CYSP 222200Z 05016G25KT 15SM DRSN FEW010 BKN016 BKN030 OVC090 M12/M16 A2998 RMK SC2SC3SC2AC1 LAST STFD OBS/NEXT 231300UTC SLP184
Observed Flight Rules
Jan-22 @ 22:00 UTC (14 hours ago) Marginal Visual Flight Rules
Wind Visibility Clouds Conditions
50° at 16 knots
 Gusting to 25 knots
15 miles
  • Few at 1,000' AGL
  • Broken at 1,600' AGL
  • Broken at 3,000' AGL
  • Overcast at 9,000' AGL
  • Low drifting
  • Snow
Temperatures Readings
Current -12°C / 10°F
Dewpoint -16°C / 3°F
Humidity 72%
Altimeter 29.98" Hg
Pressure 1018.4 hPa
Elevation 315
METAR CYSP 222200Z 05016G25KT 15SM DRSN FEW010 BKN016 BKN030 OVC090 M12/M16 A2998 RMK SC2SC3SC2AC1 LAST STFD OBS/NEXT 231300UTC SLP184
Observed Flight Rules
Jan-22 @ 22:00 UTC
(14 hours ago)
MVFR
Wind Visibility
50° at 16 knots
 Gusting to 25 knots
15 miles
Clouds
  • Few at 1,000' AGL
  • Broken at 1,600' AGL
  • Broken at 3,000' AGL
  • Overcast at 9,000' AGL
Conditions
  • Low drifting
  • Snow
Temperature Dewpoint
-12°C / 10°F -16°C / 3°F
Humidity Altimeter Pressure
72% 29.98" Hg 1018.4 hPa